Time;durP1;ratioP1;P1;durP2;ratioP2;P2;SDS_P1;SDS_P2;PMS_P1;PMS_P2;Temp;Humidity;BMP_temperature;BMP_pressure;BME280_temperature;BME280_humidity;BME280_pressure;Samples;Min_cycle;Max_cycle;Signal;HPM_P1;HPM_P2
2022/09/10 00:00:42;;;;;;;10.60;5.97;;;14.80;99.90;;;;;;4970864;28;20050;-38
2022/09/10 00:03:09;;;;;;;7.75;5.90;;;14.70;99.90;;;;;;4972343;28;20538;-37
2022/09/10 00:05:43;;;;;;;11.20;5.95;;;14.70;99.90;;;;;;4954921;28;20508;-37
2022/09/10 00:08:09;;;;;;;9.48;6.93;;;14.70;99.90;;;;;;4964638;28;20060;-37
2022/09/10 00:10:40;;;;;;;9.48;6.35;;;14.70;99.90;;;;;;4971441;28;20058;-37
2022/09/10 00:13:08;;;;;;;9.50;6.68;;;14.70;99.90;;;;;;4970811;28;20043;-37
2022/09/10 00:15:45;;;;;;;10.52;6.75;;;14.70;99.90;;;;;;4970060;28;20049;-37
2022/09/10 00:18:13;;;;;;;10.15;7.03;;;14.70;99.90;;;;;;4970101;28;20038;-38
2022/09/10 00:20:47;;;;;;;8.98;6.00;;;14.60;99.90;;;;;;4972325;28;20075;-37
2022/09/10 00:23:18;;;;;;;8.10;6.45;;;14.70;99.90;;;;;;4968048;28;20047;-37
2022/09/10 00:25:45;;;;;;;12.40;7.80;;;14.60;99.90;;;;;;4968469;28;20039;-37
2022/09/10 00:28:11;;;;;;;12.20;8.32;;;14.60;99.90;;;;;;4968664;28;20039;-38
2022/09/10 00:30:41;;;;;;;9.93;6.65;;;14.60;99.90;;;;;;4965664;28;20081;-37
2022/09/10 00:33:07;;;;;;;9.50;6.82;;;14.60;99.90;;;;;;4968670;28;20049;-36
2022/09/10 00:35:33;;;;;;;11.00;7.68;;;14.60;99.90;;;;;;4970217;28;20130;-37
2022/09/10 00:37:59;;;;;;;10.57;7.45;;;14.70;99.90;;;;;;4966775;28;20047;-38
2022/09/10 00:40:25;;;;;;;11.68;8.63;;;14.70;99.90;;;;;;4967997;28;20038;-37
2022/09/10 00:42:51;;;;;;;15.30;7.97;;;14.70;99.90;;;;;;4970641;28;20035;-38
2022/09/10 00:45:29;;;;;;;11.57;8.48;;;14.80;99.90;;;;;;4968108;28;20074;-38
2022/09/10 00:48:03;;;;;;;13.82;9.15;;;14.90;99.90;;;;;;4951784;28;20125;-38
2022/09/10 00:50:33;;;;;;;11.63;8.38;;;14.90;99.90;;;;;;4969881;28;20035;-37
2022/09/10 00:53:06;;;;;;;12.50;8.82;;;14.90;99.90;;;;;;4968019;28;20042;-37
2022/09/10 00:55:34;;;;;;;12.30;8.05;;;15.00;99.90;;;;;;4970083;28;20114;-37
2022/09/10 00:58:02;;;;;;;13.88;9.73;;;15.00;99.90;;;;;;4969163;28;20436;-38
2022/09/10 01:00:28;;;;;;;10.25;7.50;;;15.00;99.90;;;;;;4957118;28;20051;-37
2022/09/10 01:02:54;;;;;;;11.35;6.93;;;15.00;99.90;;;;;;4965745;28;20043;-37
2022/09/10 01:05:22;;;;;;;12.88;8.50;;;15.10;99.90;;;;;;4969177;28;20133;-38
2022/09/10 01:07:48;;;;;;;11.55;8.45;;;15.10;99.90;;;;;;4969511;28;20039;-37
2022/09/10 01:10:21;;;;;;;10.50;7.75;;;15.10;99.90;;;;;;4967478;28;20062;-37
2022/09/10 01:13:18;;;;;;;10.45;8.07;;;15.10;99.90;;;;;;4971171;28;20041;-36
2022/09/10 01:16:01;;;;;;;12.60;7.63;;;15.10;99.90;;;;;;4965620;28;20047;-37
2022/09/10 01:18:36;;;;;;;12.77;8.38;;;15.10;99.90;;;;;;4969451;28;20045;-37
2022/09/10 01:21:11;;;;;;;10.13;7.68;;;15.10;99.90;;;;;;4970119;28;20042;-38
2022/09/10 01:24:04;;;;;;;14.23;7.82;;;15.10;99.90;;;;;;4958427;28;20083;-38
2022/09/10 01:27:07;;;;;;;9.93;7.35;;;15.00;99.90;;;;;;4966762;28;20043;-37
2022/09/10 01:29:36;;;;;;;;;;;15.00;99.90;;;;;;4954431;28;20042;-37
2022/09/10 01:32:05;;;;;;;10.60;6.68;;;15.00;99.90;;;;;;4967994;28;19918;-38
2022/09/10 01:34:44;;;;;;;14.75;8.38;;;15.00;99.90;;;;;;4968133;28;20043;-37
2022/09/10 01:37:20;;;;;;;10.68;7.80;;;15.00;99.90;;;;;;4966055;28;20072;-37
2022/09/10 01:39:47;;;;;;;9.65;7.47;;;15.00;99.90;;;;;;4963651;28;20119;-38
2022/09/10 01:42:14;;;;;;;12.75;8.50;;;15.00;99.90;;;;;;4968206;28;20152;-37
2022/09/10 01:44:50;;;;;;;16.25;9.95;;;15.00;99.90;;;;;;4967082;28;20133;-38
2022/09/10 01:47:39;;;;;;;11.02;8.38;;;15.00;99.90;;;;;;4968805;28;20041;-38
2022/09/10 01:50:14;;;;;;;14.02;9.27;;;15.00;99.90;;;;;;4964615;28;20042;-37
2022/09/10 01:53:03;;;;;;;13.05;9.48;;;15.00;99.90;;;;;;4954135;28;20038;-44
2022/09/10 01:55:32;;;;;;;11.23;8.00;;;15.10;99.90;;;;;;4965703;28;20061;-37
2022/09/10 01:58:22;;;;;;;13.32;9.23;;;15.10;99.90;;;;;;4965784;28;20042;-37
2022/09/10 02:01:07;;;;;;;13.30;9.35;;;15.10;99.90;;;;;;4965803;28;20053;-38
2022/09/10 02:03:36;;;;;;;10.30;7.93;;;15.10;99.90;;;;;;4969010;28;20383;-39
2022/09/10 02:06:03;;;;;;;13.23;8.65;;;15.00;99.90;;;;;;4968633;28;20047;-36
2022/09/10 02:08:32;;;;;;;12.95;8.45;;;15.10;99.90;;;;;;4965755;28;20043;-37
2022/09/10 02:11:05;;;;;;;17.77;9.80;;;15.10;99.90;;;;;;4963280;28;20098;-37
2022/09/10 02:13:31;;;;;;;11.30;7.80;;;15.10;99.90;;;;;;4956928;28;20065;-37
2022/09/10 02:15:58;;;;;;;14.30;8.70;;;15.20;99.90;;;;;;4966550;28;20089;-37
2022/09/10 02:18:25;;;;;;;10.88;7.88;;;15.20;99.90;;;;;;4967098;28;20047;-37
2022/09/10 02:20:54;;;;;;;16.35;9.45;;;15.20;99.90;;;;;;4968531;28;20046;-37
2022/09/10 02:23:30;;;;;;;12.77;7.68;;;15.20;99.90;;;;;;4966084;28;20042;-37
2022/09/10 02:25:56;;;;;;;14.75;9.13;;;15.30;99.90;;;;;;4966568;28;20129;-37
2022/09/10 02:28:22;;;;;;;15.00;9.65;;;15.30;99.90;;;;;;4966362;28;20043;-38
2022/09/10 02:30:48;;;;;;;15.10;9.50;;;15.30;99.90;;;;;;4965974;28;20035;-37
2022/09/10 02:33:17;;;;;;;15.75;8.65;;;15.30;99.90;;;;;;4969469;28;20047;-37
2022/09/10 02:35:44;;;;;;;15.45;9.02;;;15.30;99.90;;;;;;4965121;28;20480;-37
2022/09/10 02:38:10;;;;;;;14.00;9.02;;;15.30;99.90;;;;;;4968422;28;20069;-37
2022/09/10 02:40:37;;;;;;;14.35;8.10;;;15.40;99.90;;;;;;4970255;28;20042;-37
2022/09/10 02:43:03;;;;;;;16.50;9.02;;;15.40;99.90;;;;;;4970888;28;20047;-36
2022/09/10 02:45:30;;;;;;;11.48;7.80;;;15.40;99.90;;;;;;4973511;28;20042;-38
2022/09/10 02:47:55;;;;;;;11.52;7.18;;;15.40;99.90;;;;;;4970899;28;20052;-37
2022/09/10 02:50:23;;;;;;;9.02;5.93;;;15.40;99.90;;;;;;4969137;28;20030;-37
2022/09/10 02:52:50;;;;;;;12.93;7.43;;;15.40;99.90;;;;;;4973047;28;20043;-38
2022/09/10 02:55:16;;;;;;;11.50;7.72;;;15.40;99.90;;;;;;4969601;28;20049;-38
2022/09/10 02:57:42;;;;;;;12.65;8.38;;;15.50;99.90;;;;;;4972519;28;20486;-37
2022/09/10 03:00:09;;;;;;;15.00;7.63;;;15.40;99.90;;;;;;4969075;28;20046;-38
2022/09/10 03:02:35;;;;;;;12.73;7.50;;;15.40;99.90;;;;;;4968241;28;20123;-37
2022/09/10 03:05:05;;;;;;;14.95;8.02;;;15.40;99.90;;;;;;4971886;28;20063;-38
2022/09/10 03:07:31;;;;;;;9.63;7.13;;;15.40;99.90;;;;;;4969866;28;20043;-37
2022/09/10 03:09:57;;;;;;;9.07;5.93;;;15.40;99.90;;;;;;4968345;28;20077;-38
2022/09/10 03:12:22;;;;;;;11.15;7.43;;;15.40;99.90;;;;;;4956624;28;20049;-37
2022/09/10 03:14:49;;;;;;;13.05;7.50;;;15.40;99.90;;;;;;4969767;28;20495;-38
2022/09/10 03:17:15;;;;;;;15.70;7.57;;;15.40;99.90;;;;;;4971000;28;20050;-38
2022/09/10 03:19:40;;;;;;;15.00;7.55;;;15.30;99.90;;;;;;4971619;28;20445;-37
2022/09/10 03:22:06;;;;;;;11.77;6.32;;;15.30;99.90;;;;;;4972456;28;20039;-37
2022/09/10 03:24:32;;;;;;;9.88;6.28;;;15.30;99.90;;;;;;4972543;28;20066;-37
2022/09/10 03:26:57;;;;;;;12.60;7.35;;;15.30;99.90;;;;;;4969479;28;20078;-38
2022/09/10 03:29:23;;;;;;;10.60;7.05;;;15.40;99.90;;;;;;4968138;28;20031;-37
2022/09/10 03:31:50;;;;;;;13.30;7.15;;;15.30;99.90;;;;;;4969444;28;20049;-38
2022/09/10 03:34:17;;;;;;;13.63;7.90;;;15.30;99.90;;;;;;4970652;28;20160;-37
2022/09/10 03:36:46;;;;;;;15.15;7.82;;;15.30;99.90;;;;;;4969253;28;20035;-36
2022/09/10 03:39:13;;;;;;;11.95;7.90;;;15.30;99.90;;;;;;4970925;28;20092;-36
2022/09/10 03:41:38;;;;;;;11.93;7.15;;;15.30;99.90;;;;;;4969408;28;20117;-36
2022/09/10 03:44:04;;;;;;;12.40;7.32;;;15.30;99.90;;;;;;4970301;28;20078;-38
2022/09/10 03:46:31;;;;;;;12.10;7.57;;;15.30;99.90;;;;;;4970073;28;20050;-35
2022/09/10 03:49:01;;;;;;;15.45;7.90;;;15.30;99.90;;;;;;4967013;28;20562;-37
2022/09/10 03:51:28;;;;;;;13.77;7.63;;;15.30;99.90;;;;;;4971310;28;20042;-38
2022/09/10 03:53:53;;;;;;;11.60;7.10;;;15.30;99.90;;;;;;4971686;28;20042;-38
2022/09/10 03:56:19;;;;;;;16.60;7.90;;;15.20;99.90;;;;;;4968712;28;20435;-37
2022/09/10 03:58:47;;;;;;;15.20;7.65;;;15.20;99.90;;;;;;4970591;28;20572;-37
2022/09/10 04:01:14;;;;;;;15.60;8.70;;;15.20;99.90;;;;;;4950138;28;20104;-37
2022/09/10 04:03:41;;;;;;;15.20;8.10;;;15.20;99.90;;;;;;4971957;28;20042;-37
2022/09/10 04:06:14;;;;;;;14.07;8.52;;;15.30;99.90;;;;;;4968842;28;20038;-39
2022/09/10 04:08:42;;;;;;;13.15;8.73;;;15.30;99.90;;;;;;4969964;28;20054;-38
2022/09/10 04:11:08;;;;;;;16.55;8.77;;;15.30;99.90;;;;;;4967242;28;20046;-37
2022/09/10 04:13:34;;;;;;;13.77;7.80;;;15.30;99.90;;;;;;4971572;28;20042;-38
2022/09/10 04:16:00;;;;;;;14.90;8.40;;;15.30;99.90;;;;;;4967775;28;20601;-37
2022/09/10 04:18:28;;;;;;;14.60;8.80;;;15.30;99.90;;;;;;4970634;28;20046;-37
2022/09/10 04:20:57;;;;;;;16.52;8.52;;;15.30;99.90;;;;;;4968147;28;20042;-37
2022/09/10 04:23:23;;;;;;;15.35;8.70;;;15.20;99.90;;;;;;4970505;28;20511;-37
2022/09/10 04:25:49;;;;;;;11.80;8.50;;;15.20;99.90;;;;;;4969682;28;20043;-36
2022/09/10 04:28:15;;;;;;;15.38;9.27;;;15.20;99.90;;;;;;4969414;28;20516;-37
2022/09/10 04:30:43;;;;;;;14.10;8.35;;;15.20;99.90;;;;;;4970777;28;20037;-37
2022/09/10 04:33:10;;;;;;;16.38;8.75;;;15.20;99.90;;;;;;4966002;28;20148;-37
2022/09/10 04:35:36;;;;;;;13.20;7.90;;;15.20;99.90;;;;;;4971008;28;20068;-37
2022/09/10 04:38:02;;;;;;;16.67;8.45;;;15.10;99.90;;;;;;4970777;28;20139;-38
2022/09/10 04:40:27;;;;;;;12.20;7.82;;;15.10;99.90;;;;;;4967676;28;20038;-38
2022/09/10 04:42:53;;;;;;;12.85;7.18;;;15.10;99.90;;;;;;4967462;28;20411;-38
2022/09/10 04:45:19;;;;;;;14.95;9.13;;;15.10;99.90;;;;;;4953282;28;20074;-38
2022/09/10 04:47:48;;;;;;;15.65;8.05;;;15.10;99.90;;;;;;4969186;28;20141;-37
2022/09/10 04:50:14;;;;;;;10.40;7.25;;;15.10;99.90;;;;;;4965276;28;20058;-37
2022/09/10 04:52:42;;;;;;;16.30;8.93;;;15.10;99.90;;;;;;4968486;28;20046;-38
2022/09/10 04:55:11;;;;;;;13.77;7.78;;;15.10;99.90;;;;;;4970324;28;20163;-36
2022/09/10 04:57:37;;;;;;;17.48;9.07;;;15.10;99.90;;;;;;4969989;28;20166;-37
2022/09/10 05:00:08;;;;;;;12.57;7.13;;;15.10;99.90;;;;;;4968055;28;20065;-37
2022/09/10 05:02:36;;;;;;;12.73;8.30;;;15.10;99.90;;;;;;4967202;28;20070;-38
2022/09/10 05:05:02;;;;;;;13.98;8.55;;;15.10;99.90;;;;;;4969814;28;20050;-38
2022/09/10 05:07:27;;;;;;;14.85;8.55;;;15.10;99.90;;;;;;4968588;28;20401;-37
2022/09/10 05:09:54;;;;;;;16.17;8.88;;;15.20;99.90;;;;;;4965204;28;20043;-37
2022/09/10 05:12:19;;;;;;;14.10;9.75;;;15.10;99.90;;;;;;4963578;28;20162;-37
2022/09/10 05:14:45;;;;;;;15.00;8.88;;;15.10;99.90;;;;;;4967341;28;20522;-38
2022/09/10 05:17:10;;;;;;;18.92;9.50;;;15.20;99.90;;;;;;4964600;28;20117;-39
2022/09/10 05:19:36;;;;;;;16.25;9.00;;;15.20;99.90;;;;;;4967947;28;20039;-39
2022/09/10 05:22:02;;;;;;;20.08;9.70;;;15.20;99.90;;;;;;4970217;28;20092;-37
2022/09/10 05:24:28;;;;;;;13.95;9.68;;;15.20;99.90;;;;;;4967810;28;20116;-38
2022/09/10 05:26:53;;;;;;;17.13;9.80;;;15.20;99.90;;;;;;4967735;28;20520;-37
2022/09/10 05:29:20;;;;;;;14.95;10.27;;;15.20;99.90;;;;;;4967784;28;20038;-38
2022/09/10 05:31:46;;;;;;;16.98;10.38;;;15.20;99.90;;;;;;4969287;28;20113;-38
2022/09/10 05:34:12;;;;;;;17.15;10.38;;;15.20;99.90;;;;;;4968816;28;20150;-37
2022/09/10 05:36:37;;;;;;;17.38;9.60;;;15.20;99.90;;;;;;4970479;28;20117;-36
2022/09/10 05:39:04;;;;;;;21.30;9.68;;;15.30;99.90;;;;;;4968267;28;20050;-37
2022/09/10 05:41:30;;;;;;;16.77;9.70;;;15.30;99.90;;;;;;4967775;28;20093;-37
2022/09/10 05:43:56;;;;;;;22.27;9.80;;;15.30;99.90;;;;;;4967912;28;20485;-38
2022/09/10 05:46:23;;;;;;;19.23;10.68;;;15.30;99.90;;;;;;4969184;28;20050;-37
2022/09/10 05:48:49;;;;;;;16.98;10.05;;;15.40;99.90;;;;;;4968338;28;20046;-38
2022/09/10 05:51:16;;;;;;;17.33;10.45;;;15.40;99.90;;;;;;4969811;28;20500;-37
2022/09/10 05:53:42;;;;;;;16.60;9.55;;;15.40;99.90;;;;;;4969526;28;20117;-37
2022/09/10 05:56:08;;;;;;;16.95;9.55;;;15.40;99.90;;;;;;4969698;28;20235;-38
2022/09/10 05:58:33;;;;;;;19.73;10.63;;;15.40;99.90;;;;;;4952620;28;20042;-36
2022/09/10 06:01:00;;;;;;;19.27;10.05;;;15.50;99.90;;;;;;4967435;28;20407;-38
2022/09/10 06:03:26;;;;;;;16.85;9.98;;;15.50;99.90;;;;;;4966335;28;20053;-38
2022/09/10 06:05:52;;;;;;;16.08;9.35;;;15.50;99.90;;;;;;4968455;28;20034;-37
2022/09/10 06:08:20;;;;;;;16.50;9.27;;;15.60;99.90;;;;;;4966215;28;20038;-39
2022/09/10 06:11:00;;;;;;;17.70;10.20;;;15.60;99.90;;;;;;4974287;28;20050;-42
2022/09/10 06:13:26;;;;;;;19.42;9.98;;;15.60;99.90;;;;;;4965981;28;20511;-37
2022/09/10 06:15:52;;;;;;;19.88;9.80;;;15.70;99.90;;;;;;4971625;28;20062;-37
2022/09/10 06:18:18;;;;;;;17.15;10.18;;;15.70;99.90;;;;;;4969545;28;20518;-37
2022/09/10 06:20:46;;;;;;;17.90;9.93;;;15.70;99.90;;;;;;4966863;28;20046;-38
2022/09/10 06:23:16;;;;;;;19.05;10.20;;;15.80;99.90;;;;;;4969474;28;20522;-37
2022/09/10 06:25:43;;;;;;;18.13;8.93;;;15.80;99.90;;;;;;4974919;28;20050;-37
2022/09/10 06:28:11;;;;;;;18.15;10.80;;;15.90;99.90;;;;;;4970110;28;20042;-38
2022/09/10 06:30:37;;;;;;;16.27;9.30;;;15.90;99.90;;;;;;4967039;28;20046;-38
2022/09/10 06:33:03;;;;;;;16.15;10.50;;;16.00;99.90;;;;;;4966746;28;20043;-37
2022/09/10 06:35:31;;;;;;;16.50;9.65;;;16.10;99.90;;;;;;4969936;28;20050;-38
2022/09/10 06:37:57;;;;;;;14.50;9.63;;;16.20;99.90;;;;;;4968652;28;20043;-37
2022/09/10 06:40:26;;;;;;;16.80;10.38;;;16.20;99.90;;;;;;4971500;28;20049;-37
2022/09/10 06:42:52;;;;;;;17.42;9.77;;;16.20;99.90;;;;;;4974628;28;20039;-37
2022/09/10 06:45:18;;;;;;;16.67;10.18;;;16.20;99.90;;;;;;4968306;28;20106;-37
2022/09/10 06:47:44;;;;;;;17.05;9.85;;;16.20;99.90;;;;;;4971425;28;20181;-37
2022/09/10 06:50:09;;;;;;;16.60;9.02;;;16.20;99.90;;;;;;4977192;28;20034;-38
2022/09/10 06:52:36;;;;;;;16.70;10.20;;;16.20;99.90;;;;;;4953243;28;20133;-38
2022/09/10 06:55:03;;;;;;;14.18;8.95;;;16.30;99.90;;;;;;4969875;28;20464;-37
2022/09/10 06:57:28;;;;;;;16.88;8.90;;;16.30;99.90;;;;;;4963713;28;20114;-38
2022/09/10 06:59:54;;;;;;;17.65;9.68;;;16.30;99.90;;;;;;4951612;28;20169;-38
2022/09/10 07:02:19;;;;;;;16.05;9.98;;;16.40;99.90;;;;;;4965883;28;20081;-38
2022/09/10 07:04:45;;;;;;;10.05;6.88;;;16.40;99.90;;;;;;4966937;28;20050;-38
2022/09/10 07:07:11;;;;;;;17.05;9.00;;;16.40;99.90;;;;;;4963036;28;20039;-38
2022/09/10 07:09:36;;;;;;;15.20;9.57;;;16.40;99.90;;;;;;4962264;28;20038;-38
2022/09/10 07:12:03;;;;;;;17.38;9.35;;;16.40;99.90;;;;;;4963852;28;20075;-37
2022/09/10 07:14:29;;;;;;;12.38;7.65;;;16.40;99.90;;;;;;4959518;28;20042;-40
2022/09/10 07:16:56;;;;;;;14.88;9.02;;;16.50;99.90;;;;;;4967147;28;20089;-38
2022/09/10 07:19:22;;;;;;;10.48;7.65;;;16.50;99.90;;;;;;4968596;28;20171;-38
2022/09/10 07:21:47;;;;;;;12.88;7.40;;;16.50;99.90;;;;;;4962057;28;20133;-37
2022/09/10 07:24:13;;;;;;;12.20;7.28;;;16.60;99.90;;;;;;4968829;28;20043;-38
2022/09/10 07:26:39;;;;;;;11.30;7.63;;;16.60;99.90;;;;;;4973806;28;20108;-38
2022/09/10 07:29:06;;;;;;;13.75;6.57;;;16.70;99.90;;;;;;4970831;28;20046;-38
2022/09/10 07:31:34;;;;;;;13.05;6.78;;;16.90;99.90;;;;;;4970138;28;20142;-40
2022/09/10 07:34:01;;;;;;;8.18;5.32;;;17.00;99.90;;;;;;4971734;28;20046;-37
2022/09/10 07:36:28;;;;;;;11.50;5.63;;;17.10;99.90;;;;;;4973167;28;20035;-38
2022/09/10 07:38:56;;;;;;;8.82;5.65;;;17.20;99.90;;;;;;4971499;28;20069;-38
2022/09/10 07:41:23;;;;;;;8.98;6.53;;;17.30;99.90;;;;;;4973356;28;20062;-38
2022/09/10 07:43:53;;;;;;;10.52;6.53;;;17.30;99.90;;;;;;4969879;28;20042;-36
2022/09/10 07:46:20;;;;;;;8.70;5.95;;;17.30;99.90;;;;;;4968759;28;20408;-38
2022/09/10 07:48:49;;;;;;;11.35;6.10;;;17.30;99.90;;;;;;4966574;28;20886;-37
2022/09/10 07:51:18;;;;;;;9.00;5.03;;;17.30;99.90;;;;;;4967825;28;20480;-36
2022/09/10 07:53:45;;;;;;;10.77;6.88;;;17.40;99.90;;;;;;4968442;28;20034;-38
2022/09/10 07:56:11;;;;;;;10.02;6.53;;;17.40;99.90;;;;;;4970281;28;20039;-38
2022/09/10 07:58:37;;;;;;;8.27;5.05;;;17.40;99.90;;;;;;4970035;28;20047;-44
2022/09/10 08:01:11;;;;;;;8.13;6.18;;;17.60;99.90;;;;;;4966594;28;20038;-39
2022/09/10 08:03:37;;;;;;;13.32;6.97;;;17.60;99.90;;;;;;4970904;28;20054;-46
2022/09/10 08:06:05;;;;;;;9.13;5.15;;;17.60;99.90;;;;;;4968179;28;20070;-38
2022/09/10 08:08:32;;;;;;;7.95;5.28;;;17.60;99.90;;;;;;4970900;28;20214;-38
2022/09/10 08:11:11;;;;;;;7.68;4.80;;;17.70;99.90;;;;;;4971815;28;20047;-38
2022/09/10 08:13:40;;;;;;;8.20;5.07;;;17.70;99.90;;;;;;4970367;28;20046;-37
2022/09/10 08:16:11;;;;;;;9.52;5.75;;;17.80;99.90;;;;;;4969626;28;20065;-38
2022/09/10 08:18:37;;;;;;;9.23;5.35;;;17.90;99.90;;;;;;4969511;28;20052;-38
2022/09/10 08:21:04;;;;;;;8.02;5.00;;;18.00;99.90;;;;;;4966676;28;20039;-38
2022/09/10 08:23:30;;;;;;;11.15;6.80;;;18.00;99.90;;;;;;4967645;28;20052;-38
2022/09/10 08:25:57;;;;;;;9.18;5.47;;;18.10;99.90;;;;;;4968307;28;20042;-38
2022/09/10 08:28:24;;;;;;;8.90;5.70;;;18.00;99.90;;;;;;4967825;28;20042;-38
2022/09/10 08:31:06;;;;;;;8.82;5.63;;;18.00;99.90;;;;;;4968126;28;20041;-37
2022/09/10 08:33:32;;;;;;;8.55;5.10;;;18.00;99.90;;;;;;4967946;28;20077;-39
2022/09/10 08:35:59;;;;;;;10.07;5.78;;;18.00;99.90;;;;;;4966835;28;20109;-38
2022/09/10 08:38:29;;;;;;;9.35;5.03;;;18.10;99.90;;;;;;4965285;28;20089;-39
2022/09/10 08:40:56;;;;;;;8.77;4.68;;;18.10;99.90;;;;;;4967118;28;20408;-38
2022/09/10 08:43:47;;;;;;;11.05;5.65;;;18.20;99.90;;;;;;4969659;28;20497;-38
2022/09/10 08:46:42;;;;;;;9.40;6.35;;;18.40;99.90;;;;;;4965704;28;20039;-38
2022/09/10 08:49:27;;;;;;;10.63;5.20;;;18.60;99.90;;;;;;4964936;28;20524;-38
2022/09/10 08:52:19;;;;;;;6.05;4.22;;;18.60;99.90;;;;;;4963455;28;20100;-36
2022/09/10 08:55:16;;;;;;;10.82;4.35;;;18.80;99.90;;;;;;4965001;28;20093;-37
2022/09/10 08:58:11;;;;;;;10.50;4.22;;;18.90;99.90;;;;;;4950457;28;20035;-38
2022/09/10 09:00:39;;;;;;;7.22;3.53;;;19.00;99.90;;;;;;4966845;28;20042;-36
2022/09/10 09:03:26;;;;;;;5.75;3.80;;;19.10;99.90;;;;;;4969888;28;20050;-37
2022/09/10 09:05:58;;;;;;;6.03;3.83;;;19.20;99.90;;;;;;4970634;28;20034;-36
2022/09/10 09:08:29;;;;;;;6.65;4.78;;;19.30;99.90;;;;;;4969625;28;20038;-37
2022/09/10 09:11:02;;;;;;;6.57;4.78;;;19.30;99.90;;;;;;4968041;28;20078;-35
2022/09/10 09:13:42;;;;;;;5.47;3.92;;;19.30;99.90;;;;;;4970676;28;20074;-36
2022/09/10 09:16:19;;;;;;;6.88;4.90;;;19.30;99.90;;;;;;4966298;28;20554;-37
2022/09/10 09:19:04;;;;;;;7.45;4.30;;;19.30;99.90;;;;;;4965612;28;20125;-37
2022/09/10 09:21:51;;;;;;;6.88;4.20;;;19.20;99.90;;;;;;4962341;28;20042;-37
2022/09/10 09:24:43;;;;;;;8.90;4.03;;;19.20;99.90;;;;;;4967335;28;20386;-37
2022/09/10 09:27:18;;;;;;;5.85;3.80;;;19.20;99.90;;;;;;4961043;28;21925;-39
2022/09/10 09:30:02;;;;;;;7.22;4.35;;;19.10;99.90;;;;;;4959511;28;20591;-38
2022/09/10 09:32:35;;;;;;;5.63;3.58;;;19.20;99.90;;;;;;4966280;28;20051;-36
2022/09/10 09:35:20;;;;;;;5.95;3.75;;;19.10;99.90;;;;;;4964549;28;20043;-37
2022/09/10 09:37:49;;;;;;;8.98;3.95;;;19.20;99.90;;;;;;4963368;28;20040;-37
2022/09/10 09:40:43;;;;;;;6.53;3.35;;;19.20;99.90;;;;;;4968377;28;20500;-50
2022/09/10 09:43:22;;;;;;;6.97;3.95;;;19.40;99.90;;;;;;4965210;28;20051;-36
2022/09/10 09:45:52;;;;;;;7.30;4.07;;;19.50;99.90;;;;;;4968551;28;20042;-36
2022/09/10 09:48:19;;;;;;;6.05;3.80;;;19.60;99.90;;;;;;4964594;28;20175;-35
2022/09/10 09:50:48;;;;;;;6.40;3.80;;;19.50;99.90;;;;;;4966946;28;20047;-37
2022/09/10 09:53:21;;;;;;;6.75;3.65;;;19.50;99.90;;;;;;4970235;28;20046;-39
2022/09/10 09:55:56;;;;;;;4.75;3.35;;;19.40;99.90;;;;;;4953162;28;20053;-36
2022/09/10 09:58:25;;;;;;;6.75;3.40;;;19.30;99.90;;;;;;4970175;28;20050;-36
2022/09/10 10:01:03;;;;;;;8.73;3.97;;;19.40;99.90;;;;;;4967379;28;20520;-36
2022/09/10 10:03:51;;;;;;;6.38;3.50;;;19.50;99.90;;;;;;4970146;28;20038;-36
2022/09/10 10:06:32;;;;;;;6.53;3.88;;;19.80;99.90;;;;;;4968198;28;20051;-48
2022/09/10 10:09:06;;;;;;;5.72;3.58;;;20.00;99.90;;;;;;4969516;28;20038;-38
2022/09/10 10:11:44;;;;;;;6.03;3.15;;;20.30;99.90;;;;;;4967129;28;20055;-37
2022/09/10 10:14:20;;;;;;;7.10;3.20;;;20.50;99.90;;;;;;4964986;28;20090;-38
2022/09/10 10:16:47;;;;;;;5.43;2.72;;;20.70;99.90;;;;;;4965606;28;20039;-36
2022/09/10 10:19:34;;;;;;;4.05;2.22;;;20.90;99.90;;;;;;4966218;28;20129;-36
2022/09/10 10:22:18;;;;;;;4.78;2.05;;;21.10;99.90;;;;;;4968451;28;20133;-36
2022/09/10 10:24:45;;;;;;;3.55;1.27;;;21.20;99.90;;;;;;4970806;28;20729;-38
2022/09/10 10:27:29;;;;;;;3.05;1.00;;;21.20;99.90;;;;;;4967816;28;20042;-37
2022/09/10 10:30:20;;;;;;;4.22;1.58;;;21.20;99.90;;;;;;4967094;28;20034;-36
2022/09/10 10:32:57;;;;;;;1.88;1.23;;;21.30;99.90;;;;;;4965843;28;20047;-37
2022/09/10 10:35:51;;;;;;;3.28;1.40;;;21.50;99.90;;;;;;4962842;28;20121;-38
2022/09/10 10:38:24;;;;;;;4.55;1.30;;;21.50;99.90;;;;;;4962862;28;20096;-38
2022/09/10 10:41:11;;;;;;;2.58;1.40;;;21.70;99.90;;;;;;4967188;28;20516;-37
2022/09/10 10:44:19;;;;;;;3.70;1.52;;;21.80;99.90;;;;;;4966186;28;20042;-38
2022/09/10 10:46:59;;;;;;;6.55;1.20;;;21.90;99.30;;;;;;4945549;28;20775;-38
2022/09/10 10:49:51;;;;;;;3.90;1.40;;;21.80;99.80;;;;;;4951907;28;20042;-38
2022/09/10 10:52:25;;;;;;;3.25;1.58;;;21.70;98.90;;;;;;4963306;28;20524;-38
2022/09/10 10:55:05;;;;;;;5.07;1.38;;;21.70;99.90;;;;;;4966300;28;20046;-37
2022/09/10 10:57:59;;;;;;;2.90;1.60;;;21.60;99.40;;;;;;4968508;28;20125;-36
2022/09/10 11:00:25;;;;;;;3.83;2.08;;;21.50;99.60;;;;;;4969774;28;20456;-37
2022/09/10 11:03:04;;;;;;;5.30;2.63;;;21.70;99.90;;;;;;4967952;28;20043;-37
2022/09/10 11:05:40;;;;;;;5.68;2.00;;;21.90;97.70;;;;;;4971735;28;20145;-36
2022/09/10 11:08:16;;;;;;;3.20;1.80;;;22.20;97.90;;;;;;4969333;28;20042;-37
2022/09/10 11:10:48;;;;;;;2.67;1.83;;;22.40;97.20;;;;;;4971570;28;20054;-37
2022/09/10 11:13:20;;;;;;;2.63;1.83;;;22.50;97.10;;;;;;4964216;28;20210;-37
2022/09/10 11:15:58;;;;;;;3.47;2.30;;;22.60;96.10;;;;;;4968955;28;20134;-36
2022/09/10 11:18:37;;;;;;;5.97;1.90;;;22.70;96.10;;;;;;4968217;28;20050;-37
2022/09/10 11:21:37;;;;;;;3.72;2.38;;;22.90;95.80;;;;;;4967561;28;20057;-37
2022/09/10 11:24:05;;;;;;;4.13;2.00;;;23.10;92.80;;;;;;4970633;28;20126;-36
2022/09/10 11:26:44;;;;;;;5.18;2.20;;;23.20;94.20;;;;;;4972071;28;20508;-37
2022/09/10 11:29:31;;;;;;;4.82;2.40;;;23.30;93.30;;;;;;4965428;28;20046;-37
2022/09/10 11:32:13;;;;;;;4.85;1.90;;;23.40;92.30;;;;;;4970032;28;20034;-36
2022/09/10 11:34:48;;;;;;;;;;;23.50;92.20;;;;;;4970941;28;20045;-36
2022/09/10 11:37:31;;;;;;;2.63;1.38;;;23.60;90.70;;;;;;4970298;28;19925;-38
2022/09/10 11:40:01;;;;;;;5.13;1.95;;;23.80;92.10;;;;;;4970897;28;20050;-38
2022/09/10 11:42:43;;;;;;;2.70;1.20;;;23.90;91.40;;;;;;4975253;28;20050;-36
2022/09/10 11:45:37;;;;;;;3.67;1.27;;;24.00;89.20;;;;;;4969138;28;20599;-37
2022/09/10 11:48:16;;;;;;;2.63;1.17;;;24.10;86.60;;;;;;4966406;28;20043;-38
2022/09/10 11:50:50;;;;;;;2.55;0.90;;;24.00;87.70;;;;;;4964254;28;20050;-37
2022/09/10 11:53:19;;;;;;;3.83;1.17;;;23.90;87.70;;;;;;4968102;28;20064;-44
2022/09/10 11:56:16;;;;;;;3.47;1.33;;;23.70;87.70;;;;;;4970068;28;20045;-37
2022/09/10 11:58:51;;;;;;;3.60;1.30;;;23.70;86.50;;;;;;4941014;28;20129;-37
2022/09/10 12:01:44;;;;;;;3.55;1.20;;;23.80;84.60;;;;;;4971665;28;20034;-37
2022/09/10 12:04:44;;;;;;;3.00;1.35;;;23.90;84.00;;;;;;4970631;28;20042;-36
2022/09/10 12:07:24;;;;;;;3.08;1.13;;;24.00;83.60;;;;;;4967527;28;20059;-37
2022/09/10 12:09:58;;;;;;;3.47;1.20;;;24.20;82.30;;;;;;4966248;28;20082;-36
2022/09/10 12:12:36;;;;;;;2.50;1.30;;;24.40;82.90;;;;;;4969277;28;20121;-38
2022/09/10 12:15:08;;;;;;;3.85;1.10;;;24.60;81.70;;;;;;4970168;28;20042;-37
2022/09/10 12:17:38;;;;;;;3.72;1.15;;;24.80;80.60;;;;;;4972134;28;20480;-38
2022/09/10 12:20:05;;;;;;;2.85;1.08;;;25.00;80.20;;;;;;4967425;28;20460;-37
2022/09/10 12:22:35;;;;;;;2.97;1.00;;;25.00;80.40;;;;;;4969714;28;21231;-37
2022/09/10 12:25:05;;;;;;;5.38;1.40;;;24.70;78.40;;;;;;4968989;28;20035;-38
2022/09/10 12:27:49;;;;;;;2.90;1.00;;;24.40;80.00;;;;;;4969549;28;20510;-38
2022/09/10 12:30:30;;;;;;;3.80;1.52;;;24.20;77.70;;;;;;4966494;28;20027;-38
2022/09/10 12:32:59;;;;;;;3.38;1.50;;;24.10;80.20;;;;;;4971063;28;20114;-37
2022/09/10 12:35:31;;;;;;;3.10;1.80;;;24.00;82.20;;;;;;4969342;28;20449;-37
2022/09/10 12:38:16;;;;;;;;;;;24.00;82.90;;;;;;4969953;28;20496;-37
2022/09/10 12:40:44;;;;;;;4.55;1.60;;;23.80;82.00;;;;;;4966817;28;20380;-37
2022/09/10 12:43:34;;;;;;;2.70;1.35;;;23.70;83.70;;;;;;4970725;28;20046;-38
2022/09/10 12:46:17;;;;;;;5.15;2.10;;;23.60;83.40;;;;;;4969307;28;20125;-40
2022/09/10 12:48:49;;;;;;;3.50;1.63;;;23.80;84.20;;;;;;4957992;28;20046;-37
2022/09/10 12:51:15;;;;;;;;;;;23.90;83.50;;;;;;4967570;28;20039;-38
2022/09/10 12:54:08;;;;;;;4.47;2.00;;;23.90;81.50;;;;;;4966934;28;19921;-37
2022/09/10 12:56:58;;;;;;;2.92;1.27;;;23.90;81.80;;;;;;4969261;28;20046;-37
2022/09/10 13:00:00;;;;;;;3.58;1.45;;;23.80;83.30;;;;;;4968453;28;20062;-36
2022/09/10 13:02:33;;;;;;;2.90;1.67;;;23.80;84.20;;;;;;4969889;28;20039;-38
2022/09/10 13:05:19;;;;;;;3.78;1.75;;;23.80;84.70;;;;;;4966898;28;20046;-38